createdAt,value
2019-01-20T00:04:04.677Z,-0.30
2019-01-20T00:08:19.761Z,-0.20
2019-01-20T00:12:34.033Z,-1.60
2019-01-20T00:16:48.901Z,-1.30
2019-01-20T00:21:03.503Z,-1.60
2019-01-20T00:25:17.830Z,-2.30
2019-01-20T00:29:36.172Z,-1.20
2019-01-20T00:33:51.054Z,-2.00
2019-01-20T00:38:05.629Z,-2.80
2019-01-20T00:42:20.329Z,-2.60
2019-01-20T00:46:34.815Z,-2.10
2019-01-20T00:50:49.307Z,-1.00
2019-01-20T00:55:03.956Z,-0.50
2019-01-20T00:59:20.603Z,-2.10
2019-01-20T01:03:35.194Z,-2.50
2019-01-20T01:07:49.792Z,-2.40
2019-01-20T01:11:50.798Z,-1.90
2019-01-20T01:16:12.962Z,-1.20
2019-01-20T01:20:33.801Z,-0.90
2019-01-20T01:24:54.649Z,-1.70
2019-01-20T01:28:55.512Z,-2.30
2019-01-20T01:33:16.217Z,-1.60
2019-01-20T01:37:17.287Z,-1.30
2019-01-20T01:41:18.363Z,-0.70
2019-01-20T01:45:39.258Z,-2.10
2019-01-20T01:50:00.016Z,-1.50
2019-01-20T01:54:01.160Z,-1.50
2019-01-20T01:58:21.897Z,-1.20
2019-01-20T02:02:36.381Z,-2.50
2019-01-20T02:06:50.715Z,-2.40
2019-01-20T02:11:05.025Z,-1.70
2019-01-20T02:15:19.747Z,-2.10
2019-01-20T02:19:34.485Z,-1.10
2019-01-20T02:23:35.512Z,-0.40
2019-01-20T02:27:56.567Z,-0.60
2019-01-20T02:32:11.185Z,-1.20
2019-01-20T02:36:25.782Z,-1.80
2019-01-20T02:40:40.338Z,-0.70
2019-01-20T02:44:54.793Z,-0.50
2019-01-20T02:49:09.244Z,-0.60
2019-01-20T02:53:23.871Z,-0.40
2019-01-20T02:57:38.450Z,-0.50
2019-01-20T03:01:52.811Z,-0.10
2019-01-20T03:06:07.359Z,-0.10
2019-01-20T03:10:22.045Z,-0.80
2019-01-20T03:14:36.788Z,-0.80
2019-01-20T03:18:50.997Z,-1.30
2019-01-20T03:23:05.346Z,-1.20
2019-01-20T03:27:20.032Z,-1.50
2019-01-20T03:31:34.415Z,-2.00
2019-01-20T03:35:35.321Z,-1.50
2019-01-20T03:39:36.330Z,-1.30
2019-01-20T03:43:57.186Z,-2.40
2019-01-20T03:48:18.021Z,-2.00
2019-01-20T03:52:38.904Z,-1.30
2019-01-20T03:56:59.842Z,-1.00
2019-01-20T04:01:00.965Z,-1.40
2019-01-20T04:05:21.925Z,-0.50
2019-01-20T04:09:42.892Z,-0.30
2019-01-20T04:14:03.741Z,-0.60
2019-01-20T04:18:04.719Z,-0.80
2019-01-20T04:22:05.684Z,-0.60
2019-01-20T04:26:06.688Z,-0.90
2019-01-20T04:30:27.680Z,-0.90
2019-01-20T04:34:48.413Z,-0.80
2019-01-20T04:39:09.128Z,-0.90
2019-01-20T04:43:29.862Z,-1.00
2019-01-20T04:47:50.734Z,-1.10
2019-01-20T04:52:04.569Z,-1.20
2019-01-20T04:56:18.414Z,-1.20
2019-01-20T05:00:33.137Z,-1.20
2019-01-20T05:04:47.881Z,-1.60
2019-01-20T05:09:03.731Z,-1.70
2019-01-20T05:13:17.772Z,-1.20
2019-01-20T05:17:32.218Z,-0.90
2019-01-20T05:21:46.829Z,-0.90
2019-01-20T05:26:01.435Z,-0.90
2019-01-20T05:30:16.212Z,-1.20
2019-01-20T05:34:30.876Z,-1.10
2019-01-20T05:38:45.502Z,-1.30
2019-01-20T05:43:00.224Z,-2.30
2019-01-20T05:47:14.799Z,-2.30
2019-01-20T05:51:29.454Z,-2.10
2019-01-20T05:55:44.048Z,-1.20
2019-01-20T05:59:58.683Z,-2.80
2019-01-20T06:04:12.446Z,-1.10
2019-01-20T06:08:27.070Z,-0.20
2019-01-20T06:12:41.034Z,-0.30
2019-01-20T06:16:54.830Z,-0.10
2019-01-20T06:21:09.445Z,-0.60
2019-01-20T06:25:24.196Z,0.10
2019-01-20T06:29:38.868Z,-0.20
2019-01-20T06:33:53.523Z,-0.20
2019-01-20T06:38:08.059Z,0.20
2019-01-20T06:42:22.557Z,0.10
2019-01-20T06:46:37.298Z,0.00
2019-01-20T06:50:51.599Z,-0.70
2019-01-20T06:55:06.212Z,-1.20
2019-01-20T06:59:20.850Z,-1.00
2019-01-20T07:03:35.554Z,-0.90
2019-01-20T07:07:50.319Z,-1.20
2019-01-20T07:12:04.724Z,-0.90
2019-01-20T07:16:18.567Z,-0.30
2019-01-20T07:20:33.082Z,-0.30
2019-01-20T07:24:47.540Z,-0.20
2019-01-20T07:29:02.117Z,-0.40
2019-01-20T07:33:16.712Z,-0.50
2019-01-20T07:37:31.020Z,-0.80
2019-01-20T07:41:45.932Z,-0.80
2019-01-20T07:50:25.655Z,-1.30
2019-01-20T07:54:46.462Z,-2.80
2019-01-20T07:58:47.770Z,-2.70
2019-01-20T08:03:08.539Z,-1.50
2019-01-20T08:07:29.690Z,-0.80
2019-01-20T08:11:50.524Z,-0.70
2019-01-20T08:16:11.411Z,-1.10
2019-01-20T08:20:32.611Z,-1.10
2019-01-20T08:24:53.588Z,-1.60
2019-01-20T08:28:54.527Z,-2.00
2019-01-20T08:32:55.624Z,-2.40
2019-01-20T08:37:16.653Z,-2.20
2019-01-20T08:41:37.674Z,-1.40
2019-01-20T08:46:20.208Z,-0.40
2019-01-20T08:50:34.822Z,-0.80
2019-01-20T08:54:48.719Z,-0.20
2019-01-20T08:59:03.209Z,-1.50
2019-01-20T09:03:17.889Z,-1.80
2019-01-20T09:07:18.960Z,-2.90
2019-01-20T09:11:39.787Z,-3.90
2019-01-20T09:16:00.677Z,-3.20
2019-01-20T09:20:21.515Z,-4.40
2019-01-20T09:24:42.319Z,-3.50
2019-01-20T09:29:03.256Z,-3.70
2019-01-20T09:33:24.536Z,-2.20
2019-01-20T09:37:33.441Z,-1.20
2019-01-20T09:41:47.832Z,-0.20
2019-01-20T09:46:02.719Z,0.70
2019-01-20T09:50:17.405Z,1.60
2019-01-20T09:54:31.744Z,2.00
2019-01-20T09:58:46.458Z,2.40
2019-01-20T10:02:47.633Z,2.40
2019-01-20T10:07:08.512Z,3.00
2019-01-20T10:11:29.397Z,3.30
2019-01-20T10:15:52.392Z,3.40
2019-01-20T10:20:34.597Z,3.60
2019-01-20T10:24:35.591Z,2.50
2019-01-20T10:28:56.463Z,2.70
2019-01-20T10:33:17.445Z,3.30
2019-01-20T10:37:38.692Z,4.00
2019-01-20T10:41:39.530Z,4.00
2019-01-20T10:46:01.527Z,3.10
2019-01-20T10:50:22.370Z,-0.10
2019-01-20T10:54:43.140Z,0.50
2019-01-20T10:59:04.093Z,0.20
2019-01-20T11:03:18.072Z,-1.20
2019-01-20T11:07:32.305Z,-0.60
2019-01-20T11:11:46.964Z,-0.40
2019-01-20T11:16:01.427Z,-0.20
2019-01-20T11:20:15.941Z,-0.60
2019-01-20T11:24:30.548Z,-0.60
2019-01-20T11:28:45.112Z,-0.60
2019-01-20T11:32:46.215Z,-0.20
2019-01-20T11:37:07.169Z,-1.00
2019-01-20T11:41:08.969Z,0.10
2019-01-20T11:45:30.098Z,0.20
2019-01-20T11:50:12.901Z,2.00
2019-01-20T11:54:33.798Z,2.40
2019-01-20T12:03:17.265Z,3.20
2019-01-20T12:07:31.446Z,3.50
2019-01-20T12:11:46.107Z,3.50
2019-01-20T12:16:00.731Z,4.50
2019-01-20T12:20:15.377Z,5.30
2019-01-20T12:24:29.695Z,3.60
2019-01-20T12:28:44.535Z,4.40
2019-01-20T12:32:59.006Z,4.50
2019-01-20T12:37:13.471Z,4.00
2019-01-20T12:41:28.002Z,5.20
2019-01-20T12:45:44.506Z,5.00
2019-01-20T12:50:02.843Z,4.20
2019-01-20T12:54:17.796Z,3.80
2019-01-20T12:58:34.690Z,4.90
2019-01-20T13:02:49.369Z,2.00
2019-01-20T13:07:03.799Z,0.80
2019-01-20T13:11:18.388Z,0.40
2019-01-20T13:15:33.199Z,1.40
2019-01-20T13:19:49.644Z,0.20
2019-01-20T13:24:04.869Z,0.40
2019-01-20T13:28:20.006Z,0.50
2019-01-20T13:32:35.147Z,-0.10
2019-01-20T13:36:50.009Z,0.30
2019-01-20T13:41:04.511Z,0.30
2019-01-20T13:45:19.275Z,1.40
2019-01-20T13:49:34.061Z,0.90
2019-01-20T13:53:48.540Z,-0.10
2019-01-20T13:58:03.265Z,-0.10
2019-01-20T14:02:17.436Z,0.10
2019-01-20T14:06:31.724Z,-0.10
2019-01-20T14:10:45.884Z,-0.10
2019-01-20T14:15:00.565Z,-0.20
2019-01-20T14:19:21.518Z,0.10
2019-01-20T14:23:31.817Z,-0.10
2019-01-20T14:27:46.727Z,0.10
2019-01-20T14:32:01.145Z,0.00
2019-01-20T14:36:15.723Z,0.10
2019-01-20T14:40:30.049Z,0.50
2019-01-20T14:44:44.555Z,0.30
2019-01-20T14:48:45.477Z,0.20
2019-01-20T14:52:59.654Z,-0.10
2019-01-20T14:57:14.274Z,0.10
2019-01-20T15:01:15.334Z,-0.20
2019-01-20T15:05:36.199Z,0.10
2019-01-20T15:09:56.979Z,0.60
2019-01-20T15:14:17.804Z,0.30
2019-01-20T15:18:19.365Z,0.70
2019-01-20T15:22:40.849Z,0.50
2019-01-20T15:27:01.724Z,0.30
2019-01-20T15:31:22.554Z,1.30
2019-01-20T15:35:24.062Z,1.20
2019-01-20T15:39:44.948Z,1.60
2019-01-20T15:44:05.884Z,1.10
2019-01-20T15:48:06.841Z,2.50
2019-01-20T15:52:21.566Z,2.60
2019-01-20T15:56:37.681Z,2.40
2019-01-20T16:00:51.890Z,1.50
2019-01-20T16:05:06.390Z,1.30
2019-01-20T16:09:48.932Z,2.30
2019-01-20T16:13:50.005Z,1.80
2019-01-20T16:18:32.519Z,2.60
2019-01-20T16:22:53.365Z,2.70
2019-01-20T16:26:54.470Z,3.60
2019-01-20T16:31:15.259Z,3.50
2019-01-20T16:35:32.283Z,2.90
2019-01-20T16:39:46.990Z,3.60
2019-01-20T16:44:01.819Z,4.10
2019-01-20T16:48:15.788Z,4.20
2019-01-20T16:52:29.638Z,4.10
2019-01-20T16:56:44.445Z,3.70
2019-01-20T17:00:58.582Z,3.40
2019-01-20T17:04:59.588Z,3.40
2019-01-20T17:09:20.469Z,3.20
2019-01-20T17:13:41.277Z,3.40
2019-01-20T17:18:02.313Z,3.20
2019-01-20T17:22:23.099Z,3.00
2019-01-20T17:31:26.449Z,2.50
2019-01-20T17:35:47.430Z,2.30
2019-01-20T17:39:48.559Z,2.30
2019-01-20T17:44:09.516Z,2.20
2019-01-20T17:48:30.359Z,2.20
2019-01-20T17:52:51.293Z,1.90
2019-01-20T17:56:52.371Z,1.60
2019-01-20T18:01:07.178Z,1.70
2019-01-20T18:05:21.395Z,1.80
2019-01-20T18:09:36.086Z,1.80
2019-01-20T18:13:50.684Z,1.80
2019-01-20T18:18:05.539Z,1.80
2019-01-20T18:22:20.202Z,1.50
2019-01-20T18:26:21.274Z,1.50
2019-01-20T18:30:42.112Z,1.50
2019-01-20T18:34:56.081Z,1.30
2019-01-20T18:39:10.742Z,1.50
2019-01-20T18:43:25.469Z,1.10
2019-01-20T18:47:26.522Z,1.40
2019-01-20T18:51:27.606Z,1.40
2019-01-20T18:55:48.345Z,1.30
2019-01-20T19:00:28.967Z,1.20
2019-01-20T19:04:43.540Z,1.10
2019-01-20T19:08:57.667Z,0.90
2019-01-20T19:13:12.048Z,0.60
2019-01-20T19:17:26.510Z,0.70
2019-01-20T19:21:40.972Z,0.70
2019-01-20T19:25:55.389Z,0.90
2019-01-20T19:30:09.903Z,0.60
2019-01-20T19:34:28.192Z,0.70
2019-01-20T19:38:43.041Z,0.70
2019-01-20T19:42:44.168Z,0.60
2019-01-20T19:47:04.954Z,0.60
2019-01-20T19:51:25.752Z,0.50
2019-01-20T19:55:46.639Z,0.40
2019-01-20T20:00:29.178Z,0.50
2019-01-20T20:04:43.448Z,0.70
2019-01-20T20:08:57.261Z,0.40
2019-01-20T20:13:15.813Z,0.10
2019-01-20T20:17:29.707Z,0.20
2019-01-20T20:21:44.339Z,-0.10
2019-01-20T20:25:59.188Z,0.10
2019-01-20T20:30:13.983Z,-0.10
2019-01-20T20:34:28.261Z,-0.20
2019-01-20T20:38:42.165Z,-0.20
2019-01-20T20:42:58.062Z,-0.10
2019-01-20T20:47:13.063Z,-0.10
2019-01-20T20:51:27.810Z,-0.20
2019-01-20T20:55:42.541Z,-0.20
2019-01-20T20:59:57.233Z,-0.40
2019-01-20T21:04:11.811Z,-0.40
2019-01-20T21:08:12.839Z,-0.40
2019-01-20T21:12:33.912Z,-0.60
2019-01-20T21:16:54.881Z,-0.60
2019-01-20T21:20:56.091Z,-0.90
2019-01-20T21:24:57.642Z,-0.70
2019-01-20T21:29:18.396Z,-0.80
2019-01-20T21:33:42.316Z,-1.00
2019-01-20T21:37:43.938Z,-1.00
2019-01-20T21:41:46.150Z,-0.50
2019-01-20T21:45:48.172Z,-0.80
2019-01-20T21:49:49.677Z,-0.90
2019-01-20T21:54:10.602Z,-1.00
2019-01-20T21:58:11.480Z,-0.70
2019-01-20T22:02:25.996Z,-1.00
2019-01-20T22:06:27.106Z,-1.00
2019-01-20T22:10:48.792Z,-1.20
2019-01-20T22:15:10.168Z,-2.10
2019-01-20T22:19:11.124Z,-1.30
2019-01-20T22:23:11.994Z,-1.20
2019-01-20T22:27:32.769Z,-1.70
2019-01-20T22:31:33.681Z,-1.20
2019-01-20T22:35:54.464Z,-1.30
2019-01-20T22:39:55.319Z,-1.10
2019-01-20T22:43:56.308Z,-1.20
2019-01-20T22:48:17.069Z,-1.20
2019-01-20T22:52:38.017Z,-1.20
2019-01-20T22:56:58.808Z,-1.20
2019-01-20T23:01:13.096Z,-1.80
2019-01-20T23:05:27.624Z,-1.90
2019-01-20T23:09:41.945Z,-1.90
2019-01-20T23:13:56.649Z,-1.30
2019-01-20T23:18:11.288Z,-1.50
2019-01-20T23:22:25.845Z,-1.40
2019-01-20T23:26:40.276Z,-1.30
2019-01-20T23:30:55.386Z,-1.90
2019-01-20T23:35:09.804Z,-1.60
2019-01-20T23:39:24.152Z,-1.70
2019-01-20T23:43:38.890Z,-1.40
2019-01-20T23:47:53.476Z,-1.80
2019-01-20T23:52:08.124Z,-1.50
2019-01-20T23:56:22.880Z,-2.00
